createdAt,value
2023-03-16T00:00:31.848Z,2.45
2023-03-16T00:03:33.674Z,2.95
2023-03-16T00:06:35.347Z,2.45
2023-03-16T00:09:37.830Z,2.60
2023-03-16T00:12:39.494Z,2.28
2023-03-16T00:15:41.760Z,2.80
2023-03-16T00:18:43.385Z,2.40
2023-03-16T00:21:47.976Z,2.60
2023-03-16T00:24:49.657Z,2.45
2023-03-16T00:27:51.323Z,2.47
2023-03-16T00:30:52.974Z,2.13
2023-03-16T00:33:54.617Z,2.60
2023-03-16T00:36:56.241Z,3.05
2023-03-16T00:39:58.402Z,2.43
2023-03-16T00:43:00.041Z,2.55
2023-03-16T00:46:01.922Z,2.88
2023-03-16T00:49:03.700Z,3.10
2023-03-16T00:52:06.419Z,2.70
2023-03-16T00:55:09.638Z,2.85
2023-03-16T00:58:11.309Z,3.10
2023-03-16T01:01:15.040Z,3.30
2023-03-16T01:04:16.747Z,3.53
2023-03-16T01:07:18.472Z,3.58
2023-03-16T01:10:20.185Z,3.17
2023-03-16T01:13:22.018Z,2.97
2023-03-16T01:16:23.705Z,3.65
2023-03-16T01:19:25.372Z,3.38
2023-03-16T01:22:27.132Z,3.40
2023-03-16T01:25:29.484Z,2.80
2023-03-16T01:28:32.158Z,3.63
2023-03-16T01:31:34.153Z,4.20
2023-03-16T01:34:36.044Z,4.10
2023-03-16T01:37:39.012Z,4.10
2023-03-16T01:40:50.258Z,3.50
2023-03-16T01:43:51.942Z,3.78
2023-03-16T01:46:53.603Z,3.80
2023-03-16T01:49:56.218Z,4.18
2023-03-16T01:53:00.849Z,3.88
2023-03-16T01:56:03.259Z,4.60
2023-03-16T01:59:07.517Z,4.40
2023-03-16T02:02:09.818Z,3.85
2023-03-16T02:05:14.235Z,3.53
2023-03-16T02:08:16.100Z,4.25
2023-03-16T02:11:17.744Z,3.80
2023-03-16T02:14:28.285Z,4.05
2023-03-16T02:17:30.868Z,4.30
2023-03-16T02:20:44.288Z,4.38
2023-03-16T02:23:46.680Z,4.35
2023-03-16T02:27:01.236Z,4.53
2023-03-16T02:30:16.942Z,4.50
2023-03-16T02:33:33.002Z,5.03
2023-03-16T02:36:34.816Z,4.53
2023-03-16T02:39:36.597Z,4.68
2023-03-16T02:42:38.731Z,5.38
2023-03-16T02:45:44.115Z,4.50
2023-03-16T02:48:50.902Z,4.55
2023-03-16T02:51:54.219Z,5.57
2023-03-16T02:54:56.219Z,5.82
2023-03-16T02:57:57.883Z,5.18
2023-03-16T03:00:59.572Z,5.15
2023-03-16T03:04:01.921Z,6.00
2023-03-16T03:07:03.556Z,5.72
2023-03-16T03:10:06.585Z,5.68
2023-03-16T03:13:08.531Z,5.93
2023-03-16T03:16:10.700Z,5.83
2023-03-16T03:19:12.927Z,5.80
2023-03-16T03:22:15.195Z,6.00
2023-03-16T03:25:17.252Z,6.18
2023-03-16T03:28:18.921Z,6.38
2023-03-16T03:31:21.583Z,5.43
2023-03-16T03:34:23.267Z,6.70
2023-03-16T03:37:24.895Z,6.70
2023-03-16T03:40:27.260Z,6.53
2023-03-16T03:43:35.804Z,6.18
2023-03-16T03:46:38.283Z,5.97
2023-03-16T03:49:40.048Z,7.20
2023-03-16T03:52:41.805Z,6.50
2023-03-16T03:55:43.658Z,6.60
2023-03-16T03:58:45.331Z,6.82
2023-03-16T04:01:51.313Z,7.35
2023-03-16T04:04:53.171Z,7.22
2023-03-16T04:07:55.074Z,6.70
2023-03-16T04:10:57.484Z,6.90
2023-03-16T04:13:59.252Z,7.20
2023-03-16T04:17:01.180Z,6.40
2023-03-16T04:20:06.662Z,7.28
2023-03-16T04:23:08.451Z,6.97
2023-03-16T04:26:12.415Z,6.60
2023-03-16T04:29:17.037Z,6.47
2023-03-16T04:32:19.129Z,7.28
2023-03-16T04:35:21.083Z,7.45
2023-03-16T04:38:26.800Z,7.22
2023-03-16T04:41:30.953Z,6.80
2023-03-16T04:44:55.432Z,7.57
2023-03-16T04:47:57.118Z,7.57
2023-03-16T04:50:59.285Z,7.43
2023-03-16T04:54:04.589Z,6.80
2023-03-16T04:57:10.210Z,7.78
2023-03-16T05:00:19.682Z,7.67
2023-03-16T05:03:53.355Z,7.67
2023-03-16T05:06:55.618Z,7.30
2023-03-16T05:10:02.172Z,7.23
2023-03-16T05:13:04.157Z,8.83
2023-03-16T05:16:06.498Z,6.90
2023-03-16T05:19:12.781Z,7.57
2023-03-16T05:22:14.454Z,7.53
2023-03-16T05:25:30.365Z,7.47
2023-03-16T05:28:36.106Z,7.68
2023-03-16T05:31:41.315Z,7.47
2023-03-16T05:34:49.280Z,8.35
2023-03-16T05:37:51.024Z,7.70
2023-03-16T05:40:54.980Z,7.50
2023-03-16T05:44:13.929Z,6.90
2023-03-16T05:47:33.984Z,7.20
2023-03-16T05:50:35.657Z,7.73
2023-03-16T05:53:37.528Z,7.43
2023-03-16T05:56:46.547Z,7.50
2023-03-16T05:59:49.481Z,7.22
2023-03-16T06:02:51.698Z,7.20
2023-03-16T06:05:54.142Z,7.30
2023-03-16T06:09:04.594Z,7.68
2023-03-16T06:12:09.827Z,7.68
2023-03-16T06:15:12.439Z,7.75
2023-03-16T06:18:14.418Z,7.53
2023-03-16T06:21:17.058Z,7.65
2023-03-16T06:24:21.369Z,7.30
2023-03-16T06:27:23.052Z,7.10
2023-03-16T06:30:40.474Z,7.45
2023-03-16T06:33:43.076Z,7.50
2023-03-16T06:36:44.804Z,6.97
2023-03-16T06:39:48.050Z,6.55
2023-03-16T06:42:51.419Z,7.93
2023-03-16T06:45:53.394Z,7.70
2023-03-16T06:48:59.386Z,7.27
2023-03-16T06:52:01.114Z,6.63
2023-03-16T06:55:02.933Z,7.43
2023-03-16T06:58:08.570Z,9.98
2023-03-16T07:01:10.864Z,7.70
2023-03-16T07:04:12.645Z,6.83
2023-03-16T07:07:15.306Z,7.05
2023-03-16T07:10:18.030Z,6.93
2023-03-16T07:13:19.685Z,6.40
2023-03-16T07:16:21.405Z,6.00
2023-03-16T07:19:26.180Z,6.28
2023-03-16T07:22:30.393Z,6.28
2023-03-16T07:25:32.226Z,6.20
2023-03-16T07:28:43.866Z,5.97
2023-03-16T07:31:45.806Z,5.53
2023-03-16T07:34:53.090Z,6.30
2023-03-16T07:37:55.532Z,5.80
2023-03-16T07:40:59.852Z,5.93
2023-03-16T07:44:01.987Z,5.55
2023-03-16T07:47:03.636Z,5.63
2023-03-16T07:50:08.454Z,5.47
2023-03-16T07:53:10.595Z,5.20
2023-03-16T07:56:14.661Z,6.23
2023-03-16T07:59:21.365Z,5.63
2023-03-16T08:02:23.227Z,5.20
2023-03-16T08:05:28.981Z,5.75
2023-03-16T08:08:35.052Z,5.97
2023-03-16T08:11:36.846Z,5.20
2023-03-16T08:14:40.118Z,5.25
2023-03-16T08:17:48.240Z,5.70
2023-03-16T08:20:56.938Z,4.97
2023-03-16T08:23:59.921Z,5.30
2023-03-16T08:27:02.262Z,4.80
2023-03-16T08:30:07.065Z,4.25
2023-03-16T08:33:11.461Z,4.57
2023-03-16T08:36:18.645Z,4.20
2023-03-16T08:39:26.810Z,4.05
2023-03-16T08:42:28.821Z,3.67
2023-03-16T08:45:34.573Z,2.85
2023-03-16T08:48:36.280Z,4.70
2023-03-16T08:51:38.102Z,2.80
2023-03-16T08:54:43.069Z,2.00
2023-03-16T08:57:46.665Z,2.42
2023-03-16T09:00:51.144Z,2.50
2023-03-16T09:03:55.865Z,2.80
2023-03-16T09:07:11.813Z,2.80
2023-03-16T09:10:13.562Z,2.75
2023-03-16T09:13:15.225Z,1.67
2023-03-16T09:16:16.911Z,1.55
2023-03-16T09:19:18.620Z,2.00
2023-03-16T09:22:20.449Z,1.83
2023-03-16T09:25:22.703Z,1.43
2023-03-16T09:28:24.346Z,1.98
2023-03-16T09:31:26.038Z,1.90
2023-03-16T09:34:31.503Z,2.00
2023-03-16T09:37:44.875Z,2.30
2023-03-16T09:40:55.476Z,2.60
2023-03-16T09:44:20.743Z,2.00
2023-03-16T09:47:25.873Z,2.05
2023-03-16T09:50:35.274Z,2.00
2023-03-16T09:53:47.258Z,2.58
2023-03-16T09:56:48.900Z,2.43
2023-03-16T09:59:50.550Z,2.38
2023-03-16T10:03:19.479Z,1.85
2023-03-16T10:06:21.153Z,2.35
2023-03-16T10:09:33.048Z,1.90
2023-03-16T10:12:37.794Z,2.42
2023-03-16T10:15:39.436Z,2.13
2023-03-16T10:18:46.686Z,2.20
2023-03-16T10:21:50.946Z,2.17
2023-03-16T10:24:55.504Z,2.40
2023-03-16T10:27:57.471Z,2.00
2023-03-16T10:31:00.184Z,2.20
2023-03-16T10:34:04.770Z,1.80
2023-03-16T10:37:06.485Z,2.50
2023-03-16T10:40:09.295Z,1.60
2023-03-16T10:43:14.174Z,2.20
2023-03-16T10:46:16.294Z,2.10
2023-03-16T10:49:25.931Z,2.08
2023-03-16T10:52:46.392Z,2.60
2023-03-16T10:55:48.129Z,2.47
2023-03-16T10:58:52.456Z,2.17
2023-03-16T11:01:55.191Z,2.60
2023-03-16T11:04:56.945Z,2.47
2023-03-16T11:07:58.541Z,2.58
2023-03-16T11:11:00.642Z,2.37
2023-03-16T11:14:04.091Z,2.88
2023-03-16T11:17:19.485Z,2.88
2023-03-16T11:20:23.744Z,2.65
2023-03-16T11:23:31.603Z,2.50
2023-03-16T11:26:37.495Z,2.78
2023-03-16T11:29:48.230Z,3.00
2023-03-16T11:32:53.179Z,2.63
2023-03-16T11:36:13.017Z,2.65
2023-03-16T11:39:36.317Z,2.50
2023-03-16T11:42:39.304Z,2.35
2023-03-16T11:46:11.645Z,2.25
2023-03-16T11:49:25.532Z,2.15
2023-03-16T11:52:57.781Z,2.30
2023-03-16T11:56:21.168Z,2.40
2023-03-16T11:59:46.278Z,2.78
2023-03-16T12:03:02.802Z,2.30
2023-03-16T12:06:42.464Z,2.13
2023-03-16T12:10:16.702Z,2.35
2023-03-16T12:13:27.333Z,2.53
2023-03-16T12:17:01.986Z,2.47
2023-03-16T12:20:27.310Z,2.55
2023-03-16T12:23:31.853Z,1.95
2023-03-16T12:26:39.246Z,3.33
2023-03-16T12:29:43.189Z,2.33
2023-03-16T12:33:04.679Z,2.73
2023-03-16T12:36:35.896Z,1.83
2023-03-16T12:40:15.039Z,1.63
2023-03-16T12:43:28.462Z,2.20
2023-03-16T12:47:03.433Z,2.13
2023-03-16T12:50:10.063Z,2.63
2023-03-16T12:53:42.940Z,2.40
2023-03-16T12:56:47.922Z,2.05
2023-03-16T12:59:49.685Z,2.50
2023-03-16T13:02:53.355Z,2.30
2023-03-16T13:05:57.264Z,2.30
2023-03-16T13:08:59.958Z,1.60
2023-03-16T13:12:01.644Z,1.90
2023-03-16T13:15:27.047Z,2.33
2023-03-16T13:18:34.866Z,2.20
2023-03-16T13:21:40.471Z,2.00
2023-03-16T13:25:14.565Z,2.03
2023-03-16T13:28:16.213Z,2.08
2023-03-16T13:31:35.910Z,1.67
2023-03-16T13:35:01.106Z,1.97
2023-03-16T13:38:04.755Z,1.70
2023-03-16T13:41:12.529Z,8.30
2023-03-16T13:44:15.088Z,1.58
2023-03-16T13:47:19.922Z,1.80
2023-03-16T13:50:28.067Z,1.70
2023-03-16T13:53:31.049Z,2.30
2023-03-16T13:56:32.774Z,4.90
2023-03-16T13:59:37.470Z,1.50
2023-03-16T14:02:42.775Z,1.90
2023-03-16T14:05:44.833Z,1.60
2023-03-16T14:08:48.127Z,1.83
2023-03-16T14:11:51.943Z,1.43
2023-03-16T14:14:55.328Z,1.90
2023-03-16T14:18:08.812Z,1.88
2023-03-16T14:21:14.585Z,1.52
2023-03-16T14:24:35.746Z,1.45
2023-03-16T14:27:41.382Z,1.60
2023-03-16T14:30:53.551Z,1.40
2023-03-16T14:34:01.653Z,1.30
2023-03-16T14:37:09.314Z,1.30
2023-03-16T14:40:26.145Z,1.47
2023-03-16T14:43:36.121Z,1.50
2023-03-16T14:46:39.640Z,1.52
2023-03-16T14:49:43.295Z,1.00
2023-03-16T14:52:45.146Z,1.50
2023-03-16T14:55:47.301Z,1.63
2023-03-16T14:58:54.931Z,1.60
2023-03-16T15:01:56.655Z,1.02
2023-03-16T15:04:58.757Z,1.48
2023-03-16T15:08:00.498Z,1.42
2023-03-16T15:11:05.053Z,1.40
2023-03-16T15:14:10.563Z,1.33
2023-03-16T15:17:12.165Z,1.50
2023-03-16T15:20:15.258Z,9.63
2023-03-16T15:23:16.914Z,1.75
2023-03-16T15:26:24.492Z,1.30
2023-03-16T15:29:26.684Z,1.30
2023-03-16T15:32:28.445Z,1.80
2023-03-16T15:35:30.306Z,1.55
2023-03-16T15:38:33.078Z,1.75
2023-03-16T15:41:46.822Z,2.10
2023-03-16T15:44:49.671Z,1.63
2023-03-16T15:47:52.390Z,1.30
2023-03-16T15:51:20.984Z,1.52
2023-03-16T15:54:22.628Z,1.40
2023-03-16T15:57:24.278Z,2.38
2023-03-16T16:00:36.682Z,1.40
2023-03-16T16:03:38.365Z,1.60
2023-03-16T16:06:40.048Z,2.05
2023-03-16T16:09:41.668Z,1.70
2023-03-16T16:12:44.696Z,1.70
2023-03-16T16:15:46.450Z,2.07
2023-03-16T16:18:48.175Z,1.90
2023-03-16T16:21:50.197Z,1.77
2023-03-16T16:24:52.244Z,1.73
2023-03-16T16:27:54.034Z,1.90
2023-03-16T16:30:55.879Z,1.77
2023-03-16T16:33:57.594Z,1.80
2023-03-16T16:36:59.260Z,2.65
2023-03-16T16:40:01.131Z,2.05
2023-03-16T16:43:03.082Z,2.20
2023-03-16T16:46:06.663Z,4.05
2023-03-16T16:49:22.901Z,2.15
2023-03-16T16:52:24.766Z,1.80
2023-03-16T16:55:26.685Z,1.92
2023-03-16T16:58:29.747Z,1.92
2023-03-16T17:01:32.841Z,2.23
2023-03-16T17:04:34.969Z,2.50
2023-03-16T17:07:36.805Z,1.80
2023-03-16T17:10:39.050Z,2.70
2023-03-16T17:13:41.196Z,2.90
2023-03-16T17:16:43.293Z,2.65
2023-03-16T17:19:45.720Z,2.65
2023-03-16T17:22:48.537Z,2.80
2023-03-16T17:25:50.777Z,3.28
2023-03-16T17:28:57.109Z,2.70
2023-03-16T17:32:04.286Z,2.78
2023-03-16T17:35:14.241Z,2.50
2023-03-16T17:38:21.528Z,2.97
2023-03-16T17:41:24.701Z,2.90
2023-03-16T17:44:31.048Z,2.95
2023-03-16T17:47:33.711Z,2.90
2023-03-16T17:50:35.869Z,3.38
2023-03-16T17:53:38.034Z,3.15
2023-03-16T17:56:41.134Z,3.33
2023-03-16T17:59:46.315Z,3.58
2023-03-16T18:02:54.513Z,3.67
2023-03-16T18:05:56.759Z,3.83
2023-03-16T18:08:59.383Z,3.88
2023-03-16T18:12:01.897Z,3.78
2023-03-16T18:15:05.057Z,4.10
2023-03-16T18:18:07.724Z,4.10
2023-03-16T18:21:20.420Z,4.80
2023-03-16T18:24:22.932Z,5.80
2023-03-16T18:27:25.706Z,9.88
2023-03-16T18:30:28.195Z,4.95
2023-03-16T18:33:39.213Z,4.30
2023-03-16T18:36:41.849Z,5.00
2023-03-16T18:39:44.340Z,4.85
2023-03-16T18:42:46.841Z,4.93
2023-03-16T18:45:49.236Z,5.30
2023-03-16T18:49:01.520Z,4.80
2023-03-16T18:52:04.779Z,6.13
2023-03-16T18:55:15.105Z,5.20
2023-03-16T18:58:20.603Z,5.18
2023-03-16T19:01:26.544Z,5.20
2023-03-16T19:04:30.248Z,5.25
2023-03-16T19:07:35.052Z,11.57
2023-03-16T19:10:40.156Z,6.37
2023-03-16T19:13:43.083Z,5.63
2023-03-16T19:16:48.927Z,5.20
2023-03-16T19:19:52.945Z,5.57
2023-03-16T19:23:14.426Z,5.18
2023-03-16T19:26:18.584Z,5.85
2023-03-16T19:29:28.648Z,5.28
2023-03-16T19:32:31.473Z,5.95
2023-03-16T19:35:50.730Z,5.87
2023-03-16T19:38:55.230Z,5.67
2023-03-16T19:42:00.860Z,5.20
2023-03-16T19:45:07.354Z,6.57
2023-03-16T19:48:15.745Z,5.13
2023-03-16T19:51:18.548Z,6.20
2023-03-16T19:54:29.109Z,6.00
2023-03-16T19:57:34.313Z,6.00
2023-03-16T20:00:38.292Z,5.77
2023-03-16T20:03:41.043Z,5.82
2023-03-16T20:06:44.676Z,6.40
2023-03-16T20:09:47.264Z,6.60
2023-03-16T20:12:52.459Z,6.30
2023-03-16T20:15:55.132Z,6.30
2023-03-16T20:18:58.940Z,6.43
2023-03-16T20:22:01.582Z,6.60
2023-03-16T20:25:04.132Z,6.65
2023-03-16T20:28:06.926Z,6.25
2023-03-16T20:31:19.009Z,5.13
2023-03-16T20:34:23.157Z,5.65
2023-03-16T20:37:27.575Z,6.60
2023-03-16T20:40:30.303Z,6.95
2023-03-16T20:43:33.079Z,6.90
2023-03-16T20:46:39.528Z,6.77
2023-03-16T20:49:41.907Z,6.40
2023-03-16T20:52:43.837Z,6.33
2023-03-16T20:55:49.447Z,6.15
2023-03-16T20:58:51.700Z,6.35
2023-03-16T21:01:53.764Z,6.13
2023-03-16T21:04:56.340Z,5.78
2023-03-16T21:07:58.380Z,5.47
2023-03-16T21:11:00.543Z,6.13
2023-03-16T21:14:02.863Z,5.27
2023-03-16T21:17:09.065Z,6.07
2023-03-16T21:20:30.843Z,5.82
2023-03-16T21:23:33.011Z,6.35
2023-03-16T21:26:34.926Z,5.83
2023-03-16T21:29:36.861Z,5.90
2023-03-16T21:32:38.588Z,6.57
2023-03-16T21:35:40.398Z,6.20
2023-03-16T21:38:42.174Z,6.30
2023-03-16T21:41:43.804Z,6.97
2023-03-16T21:44:45.553Z,6.67
2023-03-16T21:47:47.278Z,5.95
2023-03-16T21:50:49.482Z,6.38
2023-03-16T21:53:51.219Z,6.10
2023-03-16T21:56:52.868Z,5.57
2023-03-16T21:59:54.613Z,6.07
2023-03-16T22:02:57.759Z,6.32
2023-03-16T22:05:59.538Z,5.75
2023-03-16T22:09:01.174Z,5.57
2023-03-16T22:12:02.816Z,6.65
2023-03-16T22:15:04.760Z,6.88
2023-03-16T22:18:07.627Z,6.20
2023-03-16T22:21:27.472Z,5.70
2023-03-16T22:24:29.631Z,6.07
2023-03-16T22:27:31.288Z,6.50
2023-03-16T22:30:32.925Z,6.40
2023-03-16T22:33:35.216Z,6.20
2023-03-16T22:36:36.879Z,6.78
2023-03-16T22:39:38.641Z,6.40
2023-03-16T22:42:40.249Z,6.60
2023-03-16T22:45:41.915Z,6.20
2023-03-16T22:48:43.567Z,6.72
2023-03-16T22:51:45.212Z,6.78
2023-03-16T22:54:46.887Z,6.53
2023-03-16T22:58:00.021Z,6.25
2023-03-16T23:01:06.041Z,6.60
2023-03-16T23:04:13.623Z,6.35
2023-03-16T23:07:15.411Z,8.15
2023-03-16T23:10:18.278Z,8.80
2023-03-16T23:13:21.199Z,6.07
2023-03-16T23:16:24.666Z,5.63
2023-03-16T23:19:30.740Z,7.53
2023-03-16T23:22:32.404Z,6.57
2023-03-16T23:25:34.070Z,6.80
2023-03-16T23:28:35.731Z,6.18
2023-03-16T23:31:37.398Z,5.97
2023-03-16T23:34:39.033Z,6.50
2023-03-16T23:37:40.682Z,5.97
2023-03-16T23:40:42.323Z,5.97
2023-03-16T23:43:44.657Z,6.30
2023-03-16T23:46:46.321Z,6.72
2023-03-16T23:49:47.965Z,6.22
2023-03-16T23:52:49.622Z,6.75
2023-03-16T23:55:51.217Z,6.13
2023-03-16T23:58:53.810Z,6.00
